Time;durP1;ratioP1;P1;durP2;ratioP2;P2;SDS_P1;SDS_P2;PMS_P1;PMS_P2;Temp;Humidity;BMP_temperature;BMP_pressure;BME280_temperature;BME280_humidity;BME280_pressure;Samples;Min_cycle;Max_cycle;Signal;HPM_P1;HPM_P2
2022/11/05 00:09:27;;;;;;;34.93;21.63;;;;;;;;;;523544;28;1163;-58
2022/11/05 00:09:33;;;;;;;37.42;24.38;;;;;;;;;;524580;27;1206;-58
2022/11/05 00:09:49;;;;;;;40.80;25.00;;;;;;;;;;521080;28;1460;-58
2022/11/05 00:10:16;;;;;;;42.00;24.77;;;;;;;;;;521102;28;1454;-57
2022/11/05 00:10:35;;;;;;;39.00;24.00;;;;;;;;;;517883;28;1127;-58
2022/11/05 00:10:50;;;;;;;38.17;23.52;;;;;;;;;;518971;28;1381;-58
2022/11/05 00:11:06;;;;;;;38.37;22.97;;;;;;;;;;518874;28;1378;-57
2022/11/05 00:16:42;;;;;;;39.63;22.83;;;;;;;;;;519395;28;1180;-58
2022/11/05 00:16:42;;;;;;;34.25;21.55;;;;;;;;;;527435;27;1199;-57
2022/11/05 00:16:54;;;;;;;32.85;20.85;;;;;;;;;;526900;27;1413;-57
2022/11/05 00:17:09;;;;;;;33.80;20.85;;;;;;;;;;524902;28;1321;-58
2022/11/05 00:17:24;;;;;;;35.83;21.40;;;;;;;;;;524463;27;1147;-58
2022/11/05 00:17:40;;;;;;;34.90;20.90;;;;;;;;;;523430;27;1194;-58
2022/11/05 00:17:55;;;;;;;33.90;20.48;;;;;;;;;;524784;27;1377;-58
2022/11/05 00:18:11;;;;;;;33.70;20.20;;;;;;;;;;522004;28;1374;-58
2022/11/05 00:18:26;;;;;;;32.90;19.80;;;;;;;;;;520461;28;1173;-58
2022/11/05 00:18:41;;;;;;;30.60;19.23;;;;;;;;;;515404;28;1263;-58
2022/11/05 00:19:05;;;;;;;29.17;18.73;;;;;;;;;;518510;28;1415;-57
2022/11/05 00:19:21;;;;;;;32.40;19.45;;;;;;;;;;517157;28;1373;-57
2022/11/05 00:19:36;;;;;;;31.90;19.33;;;;;;;;;;517609;28;1920;-57
2022/11/05 00:19:51;;;;;;;31.23;19.27;;;;;;;;;;519497;28;1453;-58
2022/11/05 00:20:09;;;;;;;31.30;18.93;;;;;;;;;;520813;28;1387;-57
2022/11/05 00:20:24;;;;;;;33.33;19.48;;;;;;;;;;521559;28;1200;-58
2022/11/05 00:20:39;;;;;;;31.92;19.63;;;;;;;;;;523095;28;1426;-57
2022/11/05 00:20:55;;;;;;;32.10;19.27;;;;;;;;;;522862;28;1461;-57
2022/11/05 00:25:20;;;;;;;26.48;16.33;;;;;;;;;;526684;27;1301;-58
2022/11/05 00:25:36;;;;;;;29.65;17.30;;;;;;;;;;527408;27;1114;-57
2022/11/05 00:26:03;;;;;;;31.87;17.67;;;;;;;;;;522702;27;1259;-57
2022/11/05 00:26:18;;;;;;;28.77;16.65;;;;;;;;;;524142;28;1109;-58
2022/11/05 00:26:33;;;;;;;28.03;16.67;;;;;;;;;;522434;28;1406;-58
2022/11/05 00:26:49;;;;;;;27.73;16.63;;;;;;;;;;523519;28;1368;-57
2022/11/05 00:27:04;;;;;;;26.73;16.60;;;;;;;;;;522210;28;1384;-58
2022/11/05 00:27:19;;;;;;;26.80;16.80;;;;;;;;;;522321;28;1056;-57
2022/11/05 00:27:35;;;;;;;28.88;17.05;;;;;;;;;;521438;28;983;-57
2022/11/05 00:27:52;;;;;;;28.43;16.50;;;;;;;;;;524021;28;1223;-57
2022/11/05 00:28:07;;;;;;;29.45;16.88;;;;;;;;;;524136;28;1070;-57
2022/11/05 00:28:23;;;;;;;28.87;17.17;;;;;;;;;;524252;28;1652;-58
2022/11/05 00:28:42;;;;;;;27.52;16.65;;;;;;;;;;525577;27;1002;-57
2022/11/05 00:28:57;;;;;;;26.60;16.23;;;;;;;;;;523761;28;1266;-57
2022/11/05 00:29:12;;;;;;;26.50;16.40;;;;;;;;;;524209;28;1137;-57
2022/11/05 00:29:28;;;;;;;30.88;16.83;;;;;;;;;;522806;28;1206;-58
2022/11/05 00:29:43;;;;;;;31.97;16.70;;;;;;;;;;522166;28;1686;-57
2022/11/05 00:29:58;;;;;;;28.07;16.73;;;;;;;;;;521299;28;1284;-58
2022/11/05 00:30:19;;;;;;;27.50;16.53;;;;;;;;;;519199;28;997;-58
2022/11/05 00:30:35;;;;;;;28.83;16.73;;;;;;;;;;520258;28;1181;-57
2022/11/05 00:30:51;;;;;;;29.13;16.87;;;;;;;;;;518018;28;1154;-57
2022/11/05 00:31:08;;;;;;;28.08;16.58;;;;;;;;;;517080;28;1224;-57
2022/11/05 00:31:23;;;;;;;28.58;16.55;;;;;;;;;;520302;28;1161;-57
2022/11/05 00:31:39;;;;;;;29.10;16.90;;;;;;;;;;520691;28;1206;-57
2022/11/05 00:31:54;;;;;;;29.30;16.67;;;;;;;;;;519912;28;1126;-57
2022/11/05 00:32:09;;;;;;;28.93;16.63;;;;;;;;;;522711;28;1078;-57
2022/11/05 00:32:24;;;;;;;27.55;16.60;;;;;;;;;;520688;28;1212;-58
2022/11/05 00:32:40;;;;;;;28.23;16.07;;;;;;;;;;521700;28;1131;-57
2022/11/05 00:33:01;;;;;;;27.53;15.73;;;;;;;;;;522323;28;1351;-57
2022/11/05 00:33:16;;;;;;;28.40;16.02;;;;;;;;;;522416;28;1030;-57
2022/11/05 00:33:32;;;;;;;27.10;16.00;;;;;;;;;;522881;28;1128;-57
2022/11/05 00:33:47;;;;;;;27.60;15.77;;;;;;;;;;522892;28;1449;-58
2022/11/05 00:34:02;;;;;;;27.80;15.20;;;;;;;;;;522066;28;1093;-57
2022/11/05 00:34:17;;;;;;;28.10;15.30;;;;;;;;;;525041;27;1076;-57
2022/11/05 00:34:33;;;;;;;25.43;14.33;;;;;;;;;;523668;28;1228;-57
2022/11/05 00:34:48;;;;;;;20.70;12.63;;;;;;;;;;523772;28;1053;-57
2022/11/05 00:35:05;;;;;;;20.33;12.18;;;;;;;;;;523033;28;1153;-57
2022/11/05 00:35:21;;;;;;;19.92;11.63;;;;;;;;;;520942;28;1581;-57
2022/11/05 00:35:36;;;;;;;18.13;11.18;;;;;;;;;;521745;28;1537;-57
2022/11/05 00:35:51;;;;;;;17.37;11.10;;;;;;;;;;521303;28;1023;-57
2022/11/05 00:36:08;;;;;;;17.07;10.70;;;;;;;;;;523314;28;1006;-57
2022/11/05 00:36:24;;;;;;;17.48;10.88;;;;;;;;;;524869;27;1382;-58
2022/11/05 00:36:39;;;;;;;18.40;11.10;;;;;;;;;;524016;28;1200;-57
2022/11/05 00:36:55;;;;;;;17.50;10.98;;;;;;;;;;523223;28;1073;-57
2022/11/05 00:37:10;;;;;;;17.37;10.67;;;;;;;;;;520705;28;1239;-57
2022/11/05 00:37:29;;;;;;;17.97;10.50;;;;;;;;;;520449;28;1273;-59
2022/11/05 00:37:44;;;;;;;17.00;10.35;;;;;;;;;;522379;28;1093;-57
2022/11/05 00:37:59;;;;;;;16.58;10.35;;;;;;;;;;520659;28;1204;-57
2022/11/05 00:38:15;;;;;;;16.73;10.30;;;;;;;;;;522542;28;1206;-57
2022/11/05 00:38:31;;;;;;;15.80;9.83;;;;;;;;;;518771;28;1426;-57
2022/11/05 00:38:46;;;;;;;15.45;9.90;;;;;;;;;;522574;28;1051;-57
2022/11/05 00:39:01;;;;;;;15.65;9.95;;;;;;;;;;520499;28;1257;-58
2022/11/05 00:39:16;;;;;;;17.50;10.17;;;;;;;;;;522882;28;1534;-57
2022/11/05 00:39:32;;;;;;;19.13;10.77;;;;;;;;;;519264;28;1366;-57
2022/11/05 00:39:47;;;;;;;16.88;10.38;;;;;;;;;;516225;28;1914;-57
2022/11/05 00:40:03;;;;;;;16.77;10.37;;;;;;;;;;516501;28;1236;-56
2022/11/05 00:40:18;;;;;;;17.15;10.48;;;;;;;;;;518401;28;1528;-57
2022/11/05 00:40:34;;;;;;;16.37;10.30;;;;;;;;;;515964;28;1885;-57
2022/11/05 00:40:49;;;;;;;16.33;11.15;;;;;;;;;;516218;28;1457;-57
2022/11/05 00:41:05;;;;;;;20.23;12.17;;;;;;;;;;518704;28;1252;-57
2022/11/05 00:41:20;;;;;;;22.20;13.07;;;;;;;;;;517918;28;1126;-57
2022/11/05 00:41:35;;;;;;;20.50;13.53;;;;;;;;;;517779;28;1316;-57
2022/11/05 00:45:14;;;;;;;20.90;14.25;;;;;;;;;;528476;27;1381;-57
2022/11/05 00:45:30;;;;;;;20.95;14.15;;;;;;;;;;526238;27;1348;-57
2022/11/05 00:45:45;;;;;;;21.13;13.97;;;;;;;;;;528212;27;1192;-58
2022/11/05 00:46:00;;;;;;;21.57;14.27;;;;;;;;;;525688;27;1272;-57
2022/11/05 00:46:16;;;;;;;22.38;14.73;;;;;;;;;;526943;28;1278;-57
2022/11/05 00:46:31;;;;;;;21.60;14.70;;;;;;;;;;525450;27;1427;-57
2022/11/05 00:46:46;;;;;;;21.40;14.43;;;;;;;;;;524028;28;1120;-57
2022/11/05 00:49:38;;;;;;;21.40;14.63;;;;;;;;;;519119;28;1059;-57
2022/11/05 00:49:53;;;;;;;21.83;15.20;;;;;;;;;;515919;28;1176;-58
2022/11/05 00:50:09;;;;;;;22.15;14.98;;;;;;;;;;516152;28;1174;-57
2022/11/05 00:50:25;;;;;;;22.47;14.63;;;;;;;;;;515988;28;1146;-57
2022/11/05 00:50:40;;;;;;;22.13;14.40;;;;;;;;;;516673;28;1233;-57
2022/11/05 00:50:55;;;;;;;21.85;14.02;;;;;;;;;;516537;28;1251;-57
2022/11/05 00:51:11;;;;;;;21.20;13.90;;;;;;;;;;515629;28;1251;-58
2022/11/05 00:51:26;;;;;;;20.50;14.03;;;;;;;;;;516806;28;1319;-57
2022/11/05 00:51:41;;;;;;;20.48;13.63;;;;;;;;;;517560;28;1189;-57
2022/11/05 00:52:54;;;;;;;18.03;12.57;;;;;;;;;;516022;28;1273;-57
2022/11/05 00:53:06;;;;;;;15.38;10.25;;;;;;;;;;515422;28;1181;-56
2022/11/05 00:53:22;;;;;;;15.40;10.25;;;;;;;;;;517584;28;1158;-57
2022/11/05 00:53:37;;;;;;;15.13;10.23;;;;;;;;;;517682;28;1044;-57
2022/11/05 00:53:52;;;;;;;16.67;10.60;;;;;;;;;;517786;27;1113;-57
2022/11/05 00:54:08;;;;;;;16.03;11.00;;;;;;;;;;525937;27;1029;-57
2022/11/05 00:54:23;;;;;;;16.40;10.90;;;;;;;;;;528009;27;1234;-56
2022/11/05 00:54:38;;;;;;;17.20;11.10;;;;;;;;;;524749;28;1436;-57
2022/11/05 00:54:53;;;;;;;18.07;11.27;;;;;;;;;;523071;28;1222;-57
2022/11/05 00:55:09;;;;;;;18.23;11.17;;;;;;;;;;519760;28;1243;-57
2022/11/05 00:55:34;;;;;;;19.13;11.10;;;;;;;;;;522319;28;1336;-57
2022/11/05 00:55:49;;;;;;;17.10;11.40;;;;;;;;;;523432;28;1093;-57
2022/11/05 00:56:04;;;;;;;16.10;11.32;;;;;;;;;;523895;28;1092;-58
2022/11/05 00:56:20;;;;;;;16.83;11.80;;;;;;;;;;520637;28;1224;-57
2022/11/05 00:56:35;;;;;;;19.17;12.13;;;;;;;;;;520611;28;1201;-57
2022/11/05 00:56:50;;;;;;;19.50;12.00;;;;;;;;;;521677;28;1122;-57
2022/11/05 00:57:05;;;;;;;18.23;12.00;;;;;;;;;;522823;28;1181;-57
2022/11/05 00:57:21;;;;;;;18.53;12.07;;;;;;;;;;524088;28;1116;-57
2022/11/05 00:57:36;;;;;;;18.67;11.97;;;;;;;;;;524381;28;1156;-57
2022/11/05 00:57:51;;;;;;;18.98;12.10;;;;;;;;;;521329;28;1398;-57
2022/11/05 00:58:10;;;;;;;20.67;12.40;;;;;;;;;;519643;28;1260;-57
2022/11/05 00:58:28;;;;;;;20.30;12.48;;;;;;;;;;522758;28;1015;-57
2022/11/05 00:58:43;;;;;;;19.95;12.40;;;;;;;;;;522998;28;1380;-57
2022/11/05 00:58:58;;;;;;;20.50;12.70;;;;;;;;;;521963;28;1215;-57
2022/11/05 00:59:14;;;;;;;19.20;12.23;;;;;;;;;;519751;28;1303;-57
2022/11/05 00:59:29;;;;;;;17.92;11.38;;;;;;;;;;519941;28;1202;-57
2022/11/05 00:59:44;;;;;;;18.50;10.87;;;;;;;;;;518444;28;1918;-57
2022/11/05 00:59:59;;;;;;;17.23;10.17;;;;;;;;;;519603;28;1017;-56
2022/11/05 01:00:15;;;;;;;15.70;9.57;;;;;;;;;;519611;28;1230;-57
2022/11/05 01:00:33;;;;;;;14.25;8.90;;;;;;;;;;517952;28;1259;-57
2022/11/05 01:00:58;;;;;;;12.50;7.65;;;;;;;;;;521317;28;1140;-57
2022/11/05 01:01:14;;;;;;;8.73;6.25;;;;;;;;;;522834;28;1232;-57
2022/11/05 01:01:29;;;;;;;8.20;5.63;;;;;;;;;;524787;28;1597;-56
2022/11/05 01:01:44;;;;;;;9.03;5.73;;;;;;;;;;524771;28;1463;-57
2022/11/05 01:02:00;;;;;;;10.13;5.93;;;;;;;;;;520086;28;1351;-57
2022/11/05 01:02:15;;;;;;;10.00;6.03;;;;;;;;;;521198;28;1156;-57
2022/11/05 01:02:30;;;;;;;8.47;5.53;;;;;;;;;;519907;28;1592;-57
2022/11/05 01:02:45;;;;;;;8.33;5.47;;;;;;;;;;522478;28;1191;-57
2022/11/05 01:03:04;;;;;;;8.63;5.93;;;;;;;;;;521474;28;1102;-57
2022/11/05 01:03:22;;;;;;;9.35;5.80;;;;;;;;;;522722;28;1079;-57
2022/11/05 01:03:39;;;;;;;9.27;5.88;;;;;;;;;;524264;28;1097;-57
2022/11/05 01:03:54;;;;;;;9.27;5.60;;;;;;;;;;525693;27;1409;-57
2022/11/05 01:04:09;;;;;;;9.53;5.43;;;;;;;;;;522239;28;1374;-57
2022/11/05 01:04:24;;;;;;;9.57;5.67;;;;;;;;;;523340;28;1259;-57
2022/11/05 01:04:40;;;;;;;7.97;5.25;;;;;;;;;;522329;28;1212;-57
2022/11/05 01:04:55;;;;;;;7.00;4.80;;;;;;;;;;522069;28;1224;-57
2022/11/05 01:05:11;;;;;;;8.70;5.10;;;;;;;;;;521179;28;1187;-57
2022/11/05 01:05:27;;;;;;;9.32;5.35;;;;;;;;;;520881;28;1121;-57
2022/11/05 01:05:48;;;;;;;8.77;5.30;;;;;;;;;;523386;28;2011;-57
2022/11/05 01:06:15;;;;;;;8.60;5.15;;;;;;;;;;521833;28;1105;-57
2022/11/05 01:06:30;;;;;;;8.32;5.30;;;;;;;;;;525228;28;1088;-57
2022/11/05 01:06:46;;;;;;;9.60;5.47;;;;;;;;;;526512;28;1101;-57
2022/11/05 01:07:01;;;;;;;10.23;5.53;;;;;;;;;;527078;27;1203;-56
2022/11/05 01:07:16;;;;;;;10.90;5.60;;;;;;;;;;526191;27;1057;-57
2022/11/05 01:07:31;;;;;;;11.65;5.40;;;;;;;;;;523272;27;1195;-58
2022/11/05 01:07:47;;;;;;;9.03;4.90;;;;;;;;;;528084;27;1196;-57
2022/11/05 01:08:02;;;;;;;7.57;4.70;;;;;;;;;;529320;27;1100;-56
2022/11/05 01:08:19;;;;;;;8.47;4.90;;;;;;;;;;527992;27;1576;-57
2022/11/05 01:08:35;;;;;;;8.32;4.65;;;;;;;;;;522934;28;1515;-57
2022/11/05 01:08:50;;;;;;;6.82;4.28;;;;;;;;;;524178;28;1884;-57
2022/11/05 01:09:05;;;;;;;7.22;4.30;;;;;;;;;;524285;28;1648;-57
2022/11/05 01:09:21;;;;;;;8.97;4.37;;;;;;;;;;525490;28;1201;-57
2022/11/05 01:09:36;;;;;;;9.80;4.47;;;;;;;;;;523950;28;1128;-57
2022/11/05 01:09:51;;;;;;;8.77;4.20;;;;;;;;;;523231;28;1333;-57
2022/11/05 01:10:07;;;;;;;9.13;4.03;;;;;;;;;;520342;28;1247;-57
2022/11/05 01:10:22;;;;;;;9.73;4.15;;;;;;;;;;519085;28;1285;-56
2022/11/05 01:10:39;;;;;;;7.57;4.40;;;;;;;;;;517302;28;1142;-57
2022/11/05 01:10:57;;;;;;;7.90;4.47;;;;;;;;;;516560;28;1238;-57
2022/11/05 01:11:33;;;;;;;7.47;4.20;;;;;;;;;;517362;28;1231;-57
2022/11/05 01:11:50;;;;;;;8.20;4.45;;;;;;;;;;518304;28;1910;-57
2022/11/05 01:12:05;;;;;;;9.18;4.40;;;;;;;;;;520646;28;1879;-57
2022/11/05 01:12:21;;;;;;;8.00;3.90;;;;;;;;;;524605;28;1113;-57
2022/11/05 01:12:36;;;;;;;7.90;3.87;;;;;;;;;;523216;28;1158;-56
2022/11/05 01:12:52;;;;;;;8.35;3.88;;;;;;;;;;522727;28;1168;-57
2022/11/05 01:13:08;;;;;;;7.75;4.03;;;;;;;;;;522451;28;1321;-57
2022/11/05 01:13:29;;;;;;;6.95;4.20;;;;;;;;;;522690;28;1369;-57
2022/11/05 01:13:44;;;;;;;7.65;3.90;;;;;;;;;;525392;28;1349;-56
2022/11/05 01:14:08;;;;;;;7.53;4.10;;;;;;;;;;523003;28;1962;-58
2022/11/05 01:14:23;;;;;;;7.60;3.92;;;;;;;;;;525835;27;1061;-57
2022/11/05 01:14:38;;;;;;;8.02;4.10;;;;;;;;;;523909;28;2397;-57
2022/11/05 01:14:53;;;;;;;8.83;4.27;;;;;;;;;;523477;28;1227;-57
2022/11/05 01:15:09;;;;;;;11.53;4.20;;;;;;;;;;522856;28;1204;-57
2022/11/05 01:15:24;;;;;;;12.20;4.28;;;;;;;;;;522327;28;1314;-57
2022/11/05 01:15:40;;;;;;;10.70;4.20;;;;;;;;;;519802;28;1272;-57
2022/11/05 01:15:56;;;;;;;9.60;4.05;;;;;;;;;;522634;28;1096;-57
2022/11/05 01:16:12;;;;;;;8.43;4.15;;;;;;;;;;524183;28;1250;-57
2022/11/05 01:16:27;;;;;;;9.32;4.18;;;;;;;;;;525476;28;1068;-56
2022/11/05 01:16:44;;;;;;;9.93;3.90;;;;;;;;;;521653;28;1230;-57
2022/11/05 01:16:59;;;;;;;12.35;4.10;;;;;;;;;;523039;28;1475;-57
2022/11/05 01:17:15;;;;;;;11.87;4.00;;;;;;;;;;523774;28;1150;-57
2022/11/05 01:17:30;;;;;;;10.65;3.92;;;;;;;;;;524205;28;1265;-57
2022/11/05 01:17:46;;;;;;;10.80;4.10;;;;;;;;;;518925;28;1142;-57
2022/11/05 01:18:02;;;;;;;9.00;3.93;;;;;;;;;;521275;28;1128;-57
2022/11/05 01:18:18;;;;;;;7.82;4.07;;;;;;;;;;524352;28;1531;-57
2022/11/05 01:18:37;;;;;;;9.82;4.18;;;;;;;;;;522645;28;1125;-57
2022/11/05 01:18:52;;;;;;;10.50;4.15;;;;;;;;;;522876;28;1139;-57
2022/11/05 01:19:09;;;;;;;15.40;4.27;;;;;;;;;;523304;28;1004;-57
2022/11/05 01:19:24;;;;;;;15.27;3.90;;;;;;;;;;523625;28;1269;-57
2022/11/05 01:19:39;;;;;;;9.80;3.73;;;;;;;;;;523756;28;1915;-57
2022/11/05 01:19:55;;;;;;;12.20;4.00;;;;;;;;;;525694;28;1152;-57
2022/11/05 01:20:10;;;;;;;12.17;4.00;;;;;;;;;;524084;28;1137;-57
2022/11/05 01:20:25;;;;;;;9.97;3.80;;;;;;;;;;523087;28;1540;-57
2022/11/05 01:20:41;;;;;;;9.90;3.58;;;;;;;;;;520530;28;1314;-59
2022/11/05 01:20:56;;;;;;;11.00;3.60;;;;;;;;;;520452;28;1189;-57
2022/11/05 01:21:14;;;;;;;8.60;3.53;;;;;;;;;;522293;28;1133;-57
2022/11/05 01:21:30;;;;;;;7.30;3.40;;;;;;;;;;522720;28;1009;-57
2022/11/05 01:21:45;;;;;;;6.22;3.13;;;;;;;;;;520201;28;1199;-57
2022/11/05 01:22:01;;;;;;;6.57;3.28;;;;;;;;;;522083;28;1169;-57
2022/11/05 01:22:16;;;;;;;8.67;3.90;;;;;;;;;;521625;28;1317;-57
2022/11/05 01:22:31;;;;;;;9.87;3.90;;;;;;;;;;525064;28;1148;-57
2022/11/05 01:22:46;;;;;;;8.10;3.50;;;;;;;;;;520526;28;1109;-57
2022/11/05 01:23:02;;;;;;;6.83;3.23;;;;;;;;;;520168;28;1443;-57
2022/11/05 01:23:17;;;;;;;7.23;3.17;;;;;;;;;;519286;28;1708;-57
2022/11/05 01:23:32;;;;;;;6.60;3.40;;;;;;;;;;516597;28;1327;-57
2022/11/05 01:23:48;;;;;;;5.38;3.25;;;;;;;;;;517799;28;1130;-57
2022/11/05 01:24:03;;;;;;;6.70;3.20;;;;;;;;;;516019;28;1399;-57
2022/11/05 01:24:18;;;;;;;8.07;3.60;;;;;;;;;;519100;28;1067;-57
2022/11/05 01:24:34;;;;;;;8.07;3.70;;;;;;;;;;519644;28;1221;-57
2022/11/05 01:24:49;;;;;;;10.63;3.73;;;;;;;;;;520240;28;1117;-57
2022/11/05 01:25:06;;;;;;;9.40;3.50;;;;;;;;;;522677;28;1031;-57
2022/11/05 01:25:21;;;;;;;6.20;3.28;;;;;;;;;;521119;28;1307;-57
2022/11/05 01:25:36;;;;;;;7.13;3.10;;;;;;;;;;523231;28;1507;-57
2022/11/05 01:25:52;;;;;;;8.50;3.50;;;;;;;;;;522260;28;1252;-57
2022/11/05 01:26:07;;;;;;;7.97;3.67;;;;;;;;;;521717;28;1294;-57
2022/11/05 01:26:22;;;;;;;7.03;3.43;;;;;;;;;;521735;28;1423;-57
2022/11/05 01:26:38;;;;;;;7.90;3.70;;;;;;;;;;522118;28;1244;-58
2022/11/05 01:26:53;;;;;;;7.63;3.70;;;;;;;;;;523794;28;1152;-57
2022/11/05 01:27:08;;;;;;;6.83;3.40;;;;;;;;;;521833;28;1145;-57
2022/11/05 01:27:23;;;;;;;7.50;3.30;;;;;;;;;;524163;28;1076;-57
2022/11/05 01:27:39;;;;;;;8.47;3.70;;;;;;;;;;525368;28;1141;-57
2022/11/05 01:27:54;;;;;;;9.20;4.00;;;;;;;;;;523412;28;1141;-57
2022/11/05 01:28:09;;;;;;;9.48;3.90;;;;;;;;;;524534;28;1098;-57
2022/11/05 01:28:25;;;;;;;8.80;3.70;;;;;;;;;;525054;28;1120;-57
2022/11/05 01:28:40;;;;;;;10.23;3.77;;;;;;;;;;523366;28;1318;-57
2022/11/05 01:28:59;;;;;;;8.52;3.50;;;;;;;;;;524077;28;1235;-57
2022/11/05 01:29:14;;;;;;;6.32;3.47;;;;;;;;;;523720;28;1140;-57
2022/11/05 01:29:29;;;;;;;7.40;3.83;;;;;;;;;;522840;28;1189;-57
2022/11/05 01:29:45;;;;;;;8.17;4.03;;;;;;;;;;523913;28;1183;-57
2022/11/05 01:30:00;;;;;;;10.40;4.10;;;;;;;;;;525746;28;1021;-57
2022/11/05 01:30:15;;;;;;;9.07;4.03;;;;;;;;;;527236;28;1177;-57
2022/11/05 01:30:31;;;;;;;6.77;4.10;;;;;;;;;;524918;28;1441;-57
2022/11/05 01:30:54;;;;;;;7.15;4.15;;;;;;;;;;521646;28;1080;-57
2022/11/05 01:31:09;;;;;;;6.75;3.92;;;;;;;;;;522507;28;1168;-58
2022/11/05 01:31:25;;;;;;;6.07;3.67;;;;;;;;;;522371;28;1113;-58
2022/11/05 01:31:40;;;;;;;5.30;3.58;;;;;;;;;;526192;28;1092;-57
2022/11/05 01:31:55;;;;;;;5.97;3.77;;;;;;;;;;527558;28;1237;-57
2022/11/05 01:32:11;;;;;;;7.80;3.87;;;;;;;;;;525897;28;1191;-57
2022/11/05 01:32:26;;;;;;;7.85;3.65;;;;;;;;;;525567;28;1036;-58
2022/11/05 01:32:41;;;;;;;6.67;3.67;;;;;;;;;;525043;28;1047;-57
2022/11/05 01:32:57;;;;;;;6.93;3.80;;;;;;;;;;525853;28;1014;-57
2022/11/05 01:33:12;;;;;;;7.43;3.90;;;;;;;;;;526425;28;1125;-57
2022/11/05 01:33:28;;;;;;;7.70;4.13;;;;;;;;;;523676;28;1127;-57
2022/11/05 01:33:43;;;;;;;5.93;3.72;;;;;;;;;;525343;28;1231;-57
2022/11/05 01:33:59;;;;;;;5.43;3.37;;;;;;;;;;526186;27;1128;-57
2022/11/05 01:34:14;;;;;;;5.88;3.40;;;;;;;;;;526129;28;1495;-57
2022/11/05 01:34:30;;;;;;;6.17;3.57;;;;;;;;;;522069;28;1289;-57
2022/11/05 01:34:45;;;;;;;6.30;3.60;;;;;;;;;;522777;28;1384;-58
2022/11/05 01:35:01;;;;;;;6.07;3.40;;;;;;;;;;520930;28;1081;-57
2022/11/05 01:35:17;;;;;;;6.68;3.58;;;;;;;;;;524334;28;1118;-57
2022/11/05 01:35:32;;;;;;;6.85;3.72;;;;;;;;;;523140;28;1073;-57
2022/11/05 01:35:50;;;;;;;6.57;3.80;;;;;;;;;;523922;28;1514;-57
2022/11/05 01:36:06;;;;;;;6.57;3.90;;;;;;;;;;523671;28;1180;-57
2022/11/05 01:36:21;;;;;;;6.80;3.88;;;;;;;;;;526250;28;1461;-57
2022/11/05 01:36:36;;;;;;;6.70;3.90;;;;;;;;;;524415;28;1240;-57
2022/11/05 01:36:51;;;;;;;7.27;3.83;;;;;;;;;;527103;27;1144;-57
2022/11/05 01:37:07;;;;;;;6.97;3.80;;;;;;;;;;525607;28;1332;-57
2022/11/05 01:37:22;;;;;;;5.93;3.80;;;;;;;;;;522539;28;1612;-58
2022/11/05 01:37:38;;;;;;;5.37;3.60;;;;;;;;;;523617;28;1135;-57
2022/11/05 01:37:53;;;;;;;5.60;3.60;;;;;;;;;;523073;28;1081;-57
2022/11/05 01:38:09;;;;;;;6.68;3.60;;;;;;;;;;522687;28;1778;-57
2022/11/05 01:38:24;;;;;;;6.87;3.70;;;;;;;;;;522231;28;1126;-58
2022/11/05 01:38:39;;;;;;;6.77;3.97;;;;;;;;;;522216;28;1263;-58
2022/11/05 01:38:55;;;;;;;7.88;3.90;;;;;;;;;;520566;28;1284;-58
2022/11/05 01:39:10;;;;;;;9.13;3.97;;;;;;;;;;521738;28;1141;-57
2022/11/05 01:39:25;;;;;;;9.83;4.00;;;;;;;;;;520857;28;1570;-58
2022/11/05 01:39:41;;;;;;;8.88;3.80;;;;;;;;;;522586;28;1971;-57
2022/11/05 01:39:56;;;;;;;7.40;3.83;;;;;;;;;;520443;28;1216;-57
2022/11/05 01:40:15;;;;;;;7.03;4.20;;;;;;;;;;523724;28;1218;-57
2022/11/05 01:40:30;;;;;;;6.15;3.83;;;;;;;;;;523459;28;1167;-57
2022/11/05 01:40:46;;;;;;;5.55;3.65;;;;;;;;;;524719;28;1482;-58
2022/11/05 01:41:01;;;;;;;6.33;4.07;;;;;;;;;;524579;28;1530;-57
2022/11/05 01:41:16;;;;;;;7.07;4.20;;;;;;;;;;526009;28;1177;-57
2022/11/05 01:41:31;;;;;;;6.30;4.00;;;;;;;;;;527157;28;1203;-57
2022/11/05 01:41:47;;;;;;;6.00;3.90;;;;;;;;;;526989;28;1073;-57
2022/11/05 01:42:02;;;;;;;7.20;4.20;;;;;;;;;;527494;27;1160;-59
2022/11/05 01:42:23;;;;;;;8.75;4.30;;;;;;;;;;529421;27;946;-58
2022/11/05 01:42:38;;;;;;;8.60;4.22;;;;;;;;;;525491;28;1249;-57
2022/11/05 01:42:53;;;;;;;7.70;4.25;;;;;;;;;;523398;28;1121;-56
2022/11/05 01:43:17;;;;;;;7.23;4.30;;;;;;;;;;524687;28;1024;-57
2022/11/05 01:43:49;;;;;;;8.15;4.53;;;;;;;;;;525284;28;1523;-57
2022/11/05 01:44:04;;;;;;;8.70;4.50;;;;;;;;;;524589;28;1125;-57
2022/11/05 01:44:51;;;;;;;8.52;4.22;;;;;;;;;;524559;28;1277;-57
2022/11/05 01:45:16;;;;;;;8.93;4.50;;;;;;;;;;524636;28;1431;-57
2022/11/05 01:45:31;;;;;;;9.23;4.60;;;;;;;;;;524214;28;1144;-57
2022/11/05 01:45:50;;;;;;;9.23;4.73;;;;;;;;;;523917;28;1181;-57
2022/11/05 01:46:05;;;;;;;7.03;4.32;;;;;;;;;;524102;28;1540;-57
2022/11/05 01:46:24;;;;;;;5.95;4.05;;;;;;;;;;523168;28;1299;-57
2022/11/05 01:46:45;;;;;;;6.47;3.97;;;;;;;;;;522905;28;1104;-57
2022/11/05 01:47:00;;;;;;;6.80;3.95;;;;;;;;;;524186;28;1137;-57
2022/11/05 01:47:23;;;;;;;6.95;4.07;;;;;;;;;;521697;28;1299;-57
2022/11/05 01:47:55;;;;;;;8.43;4.55;;;;;;;;;;521868;28;1220;-57
2022/11/05 01:48:10;;;;;;;7.88;4.57;;;;;;;;;;525008;28;1069;-57
2022/11/05 01:48:32;;;;;;;7.67;4.70;;;;;;;;;;526065;28;1233;-57
2022/11/05 01:48:51;;;;;;;10.05;5.00;;;;;;;;;;525119;28;1101;-57
2022/11/05 01:49:17;;;;;;;8.32;4.50;;;;;;;;;;527860;27;1123;-58
2022/11/05 01:49:33;;;;;;;6.60;4.35;;;;;;;;;;526799;27;1079;-57
2022/11/05 01:49:48;;;;;;;6.88;4.35;;;;;;;;;;527492;27;986;-57
2022/11/05 01:50:28;;;;;;;6.47;4.53;;;;;;;;;;527395;27;1579;-57
2022/11/05 01:50:43;;;;;;;6.10;4.20;;;;;;;;;;527761;27;1160;-57
2022/11/05 01:51:05;;;;;;;7.97;4.47;;;;;;;;;;525219;28;1200;-57
2022/11/05 01:51:25;;;;;;;8.30;4.60;;;;;;;;;;524069;28;1278;-57
2022/11/05 01:51:43;;;;;;;8.70;4.75;;;;;;;;;;524013;28;1141;-58
2022/11/05 01:52:02;;;;;;;10.10;4.88;;;;;;;;;;526473;28;1167;-57
2022/11/05 01:52:19;;;;;;;8.73;4.78;;;;;;;;;;520468;28;1209;-58
2022/11/05 01:52:34;;;;;;;7.50;4.63;;;;;;;;;;523516;28;1165;-57
2022/11/05 01:52:54;;;;;;;8.53;4.67;;;;;;;;;;523748;28;1209;-57
2022/11/05 01:53:24;;;;;;;7.88;4.20;;;;;;;;;;523668;28;1078;-57
2022/11/05 01:53:47;;;;;;;9.27;4.30;;;;;;;;;;522455;28;1078;-57
2022/11/05 01:54:07;;;;;;;5.55;4.00;;;;;;;;;;521935;28;1118;-57
2022/11/05 01:54:26;;;;;;;6.15;4.20;;;;;;;;;;526480;28;1061;-57
2022/11/05 01:54:42;;;;;;;6.75;4.18;;;;;;;;;;525625;27;1086;-57
2022/11/05 01:54:58;;;;;;;7.10;4.15;;;;;;;;;;525419;28;1199;-57
2022/11/05 01:55:20;;;;;;;7.28;4.28;;;;;;;;;;522409;28;1350;-57
2022/11/05 01:55:41;;;;;;;6.20;4.03;;;;;;;;;;522866;28;1071;-57
2022/11/05 01:56:02;;;;;;;7.55;4.43;;;;;;;;;;522593;28;1373;-57
2022/11/05 01:56:41;;;;;;;6.65;4.43;;;;;;;;;;520844;28;2124;-57
2022/11/05 01:57:04;;;;;;;6.50;4.28;;;;;;;;;;516473;28;1181;-57
2022/11/05 01:57:20;;;;;;;6.63;4.00;;;;;;;;;;522386;28;1209;-57
2022/11/05 01:57:35;;;;;;;7.28;4.20;;;;;;;;;;526399;28;1160;-57
2022/11/05 01:57:53;;;;;;;6.10;4.00;;;;;;;;;;525408;28;1366;-57
2022/11/05 01:58:14;;;;;;;5.55;3.92;;;;;;;;;;522631;28;1116;-58
2022/11/05 01:58:38;;;;;;;5.97;4.00;;;;;;;;;;522428;28;1111;-58
2022/11/05 01:58:59;;;;;;;8.60;4.40;;;;;;;;;;518586;28;1400;-58
2022/11/05 01:59:19;;;;;;;7.72;4.18;;;;;;;;;;520561;28;1130;-57
2022/11/05 01:59:40;;;;;;;7.85;4.10;;;;;;;;;;521395;28;1146;-57
2022/11/05 01:59:58;;;;;;;8.32;3.90;;;;;;;;;;522907;28;1188;-57
2022/11/05 02:00:15;;;;;;;8.32;4.10;;;;;;;;;;522743;28;1166;-57
2022/11/05 02:00:30;;;;;;;7.28;4.30;;;;;;;;;;524824;28;1317;-57
2022/11/05 02:00:46;;;;;;;7.20;4.15;;;;;;;;;;523992;28;1434;-57
2022/11/05 02:01:01;;;;;;;7.47;3.90;;;;;;;;;;524157;28;1263;-57
2022/11/05 02:01:17;;;;;;;7.40;3.80;;;;;;;;;;524527;28;1227;-58
2022/11/05 02:01:32;;;;;;;7.30;3.97;;;;;;;;;;526231;28;1129;-57
2022/11/05 02:01:47;;;;;;;6.40;3.90;;;;;;;;;;525761;28;1277;-57
2022/11/05 02:02:06;;;;;;;5.30;3.80;;;;;;;;;;526522;28;1203;-58
2022/11/05 02:02:23;;;;;;;6.03;3.95;;;;;;;;;;524830;28;1493;-58
2022/11/05 02:02:39;;;;;;;6.20;4.30;;;;;;;;;;527532;28;1143;-57
2022/11/05 02:02:54;;;;;;;6.43;4.27;;;;;;;;;;522940;28;1201;-57
2022/11/05 02:03:12;;;;;;;6.60;4.07;;;;;;;;;;521458;28;1083;-58
2022/11/05 02:03:28;;;;;;;6.45;3.90;;;;;;;;;;523606;28;1262;-58
2022/11/05 02:03:45;;;;;;;6.72;3.88;;;;;;;;;;524572;28;1133;-57
2022/11/05 02:04:05;;;;;;;5.82;3.85;;;;;;;;;;520262;28;1475;-58
2022/11/05 02:04:34;;;;;;;5.63;3.90;;;;;;;;;;521811;28;1102;-57
2022/11/05 02:05:01;;;;;;;6.85;4.10;;;;;;;;;;519718;28;1150;-57
2022/11/05 02:05:16;;;;;;;6.72;4.18;;;;;;;;;;521436;28;1211;-57
2022/11/05 02:05:32;;;;;;;7.13;4.30;;;;;;;;;;523575;28;1038;-57
2022/11/05 02:05:50;;;;;;;7.18;4.03;;;;;;;;;;524523;28;1269;-57
2022/11/05 02:06:08;;;;;;;8.07;4.18;;;;;;;;;;524604;28;1180;-58
2022/11/05 02:06:26;;;;;;;6.82;4.13;;;;;;;;;;524906;28;966;-57
2022/11/05 02:06:45;;;;;;;6.88;4.07;;;;;;;;;;524352;28;1100;-58
2022/11/05 02:07:01;;;;;;;6.63;4.03;;;;;;;;;;523755;28;1057;-57
2022/11/05 02:07:17;;;;;;;5.97;3.90;;;;;;;;;;526565;28;1254;-57
2022/11/05 02:07:32;;;;;;;6.20;3.97;;;;;;;;;;522145;28;1214;-58
2022/11/05 02:07:48;;;;;;;6.43;4.10;;;;;;;;;;522922;28;1447;-58
2022/11/05 02:08:04;;;;;;;6.38;4.07;;;;;;;;;;522747;28;1078;-57